aviador You're here:

GMMZ Decoded Metar

OUARZAZATE in MOROCCO
Report Time2017-08-06 08:00:00
UTC Time2017-08-22 16:30:34
Flight Rules Old
WindVRB at 02 kt
Visibility8000 m
Phenomena:N/A
Clouds:Few 050 Hf
Expected CloudBase > 8,000 ft AGL from Temp-Dew spread
CeilingNone
Temp27°C (ISA +19)
Dew Point07°C (28% RH)
Heat Index26.3°C
AAT25.6°C
QNH1022 hPa
Density Alt5,801 ft
Elevation3,740 ft
Report Wrong Elevation
Raw Report
GMMZ 060800Z VRB02KT 8000 FEW050 27/07 Q1022 NOSIG=

Extra information for GMMZ:More info

Metar Taf Metar & Taf Last 4 Metars F.Rules Stats Wind Profile Meteogram Temp Stats Airport Information Weather charts Add Link Nearby VenuesMetar ALERT Operation Metar Decoded Social comments